Time;durP1;ratioP1;P1;durP2;ratioP2;P2;SDS_P1;SDS_P2;PMS_P1;PMS_P2;Temp;Humidity;BMP_temperature;BMP_pressure;BME280_temperature;BME280_humidity;BME280_pressure;Samples;Min_cycle;Max_cycle;Signal;HPM_P1;HPM_P2
2022/09/21 00:02:06;;;;;;;;;;;9.00;99.90;;;;;;5078974;28;19924;-71
2022/09/21 00:04:38;;;;;;;;;;;8.90;99.90;;;;;;5068243;28;19925;-71
2022/09/21 00:07:09;;;;;;;;;;;8.90;99.90;;;;;;5060640;28;19924;-72
2022/09/21 00:09:41;;;;;;;;;;;8.90;99.90;;;;;;5076617;28;20391;-71
2022/09/21 00:12:12;;;;;;;;;;;8.80;99.90;;;;;;5055672;28;19924;-71
2022/09/21 00:14:44;;;;;;;;;;;8.70;99.90;;;;;;5055909;28;19924;-71
2022/09/21 00:17:15;;;;;;;;;;;8.60;99.90;;;;;;5082865;28;19925;-70
2022/09/21 00:19:47;;;;;;;;;;;8.50;99.90;;;;;;5065812;28;20034;-71
2022/09/21 00:22:18;;;;;;;;;;;8.40;99.90;;;;;;5073995;28;19936;-71
2022/09/21 00:24:50;;;;;;;;;;;8.30;99.90;;;;;;5081296;28;19990;-71
2022/09/21 00:27:16;;;;;;;;;;;8.30;99.90;;;;;;5075815;28;20333;-73
2022/09/21 00:29:48;;;;;;;;;;;8.40;99.90;;;;;;5070503;28;19954;-71
2022/09/21 00:32:20;;;;;;;;;;;8.40;99.90;;;;;;5056696;28;19928;-71
2022/09/21 00:34:52;;;;;;;;;;;8.40;99.90;;;;;;5062345;28;19929;-71
2022/09/21 00:37:23;;;;;;;;;;;8.30;99.90;;;;;;5055961;28;19932;-71
2022/09/21 00:39:55;;;;;;;;;;;8.30;99.90;;;;;;5061756;28;19928;-71
2022/09/21 00:42:32;;;;;;;;;;;8.30;99.90;;;;;;5057481;28;19925;-71
2022/09/21 00:45:04;;;;;;;;;;;8.30;99.90;;;;;;5071461;28;19929;-71
2022/09/21 00:47:39;;;;;;;;;;;8.20;99.90;;;;;;5058369;28;20022;-71
2022/09/21 00:50:12;;;;;;;;;;;8.20;99.90;;;;;;5061721;28;19983;-72
2022/09/21 00:52:49;;;;;;;;;;;8.20;99.90;;;;;;5075965;28;19924;-72
2022/09/21 00:55:27;;;;;;;;;;;8.20;99.90;;;;;;5065433;28;19924;-71
2022/09/21 00:58:03;;;;;;;;;;;8.30;99.90;;;;;;5056422;28;19932;-70
2022/09/21 01:00:35;;;;;;;;;;;8.20;99.90;;;;;;5058156;28;19924;-71
2022/09/21 01:03:08;;;;;;;;;;;8.20;99.90;;;;;;5071680;28;19982;-71
2022/09/21 01:05:39;;;;;;;;;;;8.10;99.90;;;;;;5074915;28;20335;-71
2022/09/21 01:08:12;;;;;;;;;;;8.10;99.90;;;;;;5050126;28;20345;-72
2022/09/21 01:10:58;;;;;;;;;;;8.10;99.90;;;;;;5061844;28;19931;-71
2022/09/21 01:13:53;;;;;;;;;;;8.10;99.90;;;;;;5063969;28;20382;-71
2022/09/21 01:16:38;;;;;;;;;;;8.00;99.90;;;;;;5049076;28;19932;-72
2022/09/21 01:19:21;;;;;;;;;;;8.00;99.90;;;;;;5082674;28;19924;-71
2022/09/21 01:21:52;;;;;;;;;;;7.90;99.90;;;;;;5076198;28;19929;-71
2022/09/21 01:24:38;;;;;;;;;;;7.80;99.90;;;;;;5083014;28;20300;-71
2022/09/21 01:27:42;;;;;;;;;;;7.80;99.90;;;;;;5081529;28;19928;-71
2022/09/21 01:30:16;;;;;;;;;;;7.70;99.90;;;;;;5012140;28;19925;-71
2022/09/21 01:32:51;;;;;;;;;;;7.70;99.90;;;;;;5057492;28;20429;-71
2022/09/21 01:35:26;;;;;;;;;;;7.70;99.90;;;;;;5068753;28;19925;-72
2022/09/21 01:38:09;;;;;;;;;;;7.60;99.90;;;;;;5044995;28;19964;-71
2022/09/21 01:40:38;;;;;;;;;;;7.50;99.90;;;;;;5056676;28;19929;-72
2022/09/21 01:43:08;;;;;;;;;;;7.40;99.90;;;;;;5048736;28;21445;-71
2022/09/21 01:45:42;;;;;;;;;;;7.40;99.90;;;;;;5069754;28;20365;-71
2022/09/21 01:48:14;;;;;;;;;;;7.30;99.90;;;;;;5078601;28;19971;-71
2022/09/21 01:50:43;;;;;;;;;;;7.30;99.90;;;;;;5063709;28;20403;-71
2022/09/21 01:53:22;;;;;;;;;;;7.30;99.90;;;;;;5063215;28;19983;-71
2022/09/21 01:55:58;;;;;;;;;;;7.20;99.90;;;;;;5076836;28;19924;-71
2022/09/21 01:58:35;;;;;;;;;;;7.20;99.90;;;;;;5069456;28;20276;-71
2022/09/21 02:01:10;;;;;;;;;;;7.20;99.90;;;;;;5080198;28;19931;-71
2022/09/21 02:03:48;;;;;;;;;;;7.10;99.90;;;;;;5074719;28;19924;-71
2022/09/21 02:06:20;;;;;;;;;;;7.10;99.90;;;;;;5063255;28;19928;-71
2022/09/21 02:08:47;;;;;;;;;;;7.10;99.90;;;;;;5064894;28;19998;-71
2022/09/21 02:11:18;;;;;;;;;;;7.00;99.90;;;;;;5057413;28;20445;-71
2022/09/21 02:13:51;;;;;;;;;;;7.00;99.90;;;;;;5060359;28;19924;-71
2022/09/21 02:16:23;;;;;;;;;;;6.90;99.90;;;;;;5080110;28;19930;-72
2022/09/21 02:19:08;;;;;;;;;;;6.90;99.90;;;;;;5034729;28;20442;-71
2022/09/21 02:21:51;;;;;;;;;;;6.80;99.90;;;;;;5070659;28;19924;-71
2022/09/21 02:24:32;;;;;;;;;;;6.80;99.90;;;;;;5052005;28;19924;-71
2022/09/21 02:27:06;;;;;;;;;;;6.80;99.90;;;;;;5081188;28;19979;-71
2022/09/21 02:30:03;;;;;;;;;;;6.80;99.90;;;;;;5061666;28;19924;-71
2022/09/21 02:32:49;;;;;;;;;;;6.70;99.90;;;;;;5080203;28;19928;-71
2022/09/21 02:35:38;;;;;;;;;;;6.70;99.90;;;;;;5057767;28;19932;-71
2022/09/21 02:38:18;;;;;;;;;;;6.70;99.90;;;;;;5070161;28;19964;-71
2022/09/21 02:41:02;;;;;;;;;;;6.60;99.90;;;;;;5078751;28;20457;-71
2022/09/21 02:43:37;;;;;;;;;;;6.60;99.90;;;;;;5071795;28;20362;-72
2022/09/21 02:46:13;;;;;;;;;;;6.60;99.90;;;;;;5071202;28;19924;-72
2022/09/21 02:48:44;;;;;;;;;;;6.60;99.90;;;;;;5057361;28;19924;-71
2022/09/21 02:51:15;;;;;;;;;;;6.60;99.90;;;;;;5075759;28;19928;-72
2022/09/21 02:53:48;;;;;;;;;;;6.60;99.90;;;;;;5042418;28;19928;-72
2022/09/21 02:56:20;;;;;;;;;;;6.60;99.90;;;;;;5063207;28;19978;-72
2022/09/21 02:58:53;;;;;;;;;;;6.60;99.90;;;;;;5061306;28;19959;-71
2022/09/21 03:01:25;;;;;;;;;;;6.50;99.90;;;;;;5086530;28;19978;-71
2022/09/21 03:03:57;;;;;;;;;;;6.50;99.90;;;;;;5043488;28;20511;-72
2022/09/21 03:06:30;;;;;;;;;;;6.50;99.90;;;;;;5063726;28;19928;-72
2022/09/21 03:09:01;;;;;;;;;;;6.50;99.90;;;;;;5085644;28;19932;-72
2022/09/21 03:11:34;;;;;;;;;;;6.50;99.90;;;;;;5061078;28;20341;-72
2022/09/21 03:14:07;;;;;;;;;;;6.50;99.90;;;;;;5073943;28;19955;-72
2022/09/21 03:16:39;;;;;;;;;;;6.50;99.90;;;;;;5077848;28;19925;-72
2022/09/21 03:19:14;;;;;;;;;;;6.40;99.90;;;;;;5061672;28;19936;-72
2022/09/21 03:21:45;;;;;;;;;;;6.30;99.90;;;;;;5079174;28;19924;-72
2022/09/21 03:24:44;;;;;;;;;;;6.30;99.90;;;;;;5079453;28;19925;-73
2022/09/21 03:27:08;;;;;;;;;;;6.30;99.90;;;;;;5072946;28;19955;-72
2022/09/21 03:29:35;;;;;;;;;;;6.20;99.90;;;;;;5079067;28;19959;-72
2022/09/21 03:32:02;;;;;;;;;;;6.20;99.90;;;;;;5063621;28;19986;-72
2022/09/21 03:34:30;;;;;;;;;;;6.20;99.90;;;;;;5069007;28;19924;-73
2022/09/21 03:37:03;;;;;;;;;;;6.20;99.90;;;;;;5079604;28;19928;-72
2022/09/21 03:39:35;;;;;;;;;;;6.20;99.90;;;;;;5066744;28;20448;-72
2022/09/21 03:42:02;;;;;;;;;;;6.20;99.90;;;;;;5082400;28;19954;-72
2022/09/21 03:44:29;;;;;;;;;;;6.20;99.90;;;;;;5079543;28;19928;-73
2022/09/21 03:47:01;;;;;;;;;;;6.20;99.90;;;;;;5065433;28;20298;-73
2022/09/21 03:49:33;;;;;;;;;;;6.20;99.90;;;;;;5086956;28;19950;-72
2022/09/21 03:52:05;;;;;;;;;;;6.20;99.90;;;;;;5070081;28;19933;-72
2022/09/21 03:54:36;;;;;;;;;;;6.20;99.90;;;;;;5076897;28;20330;-72
2022/09/21 03:57:08;;;;;;;;;;;6.20;99.90;;;;;;5081911;28;19925;-72
2022/09/21 03:59:40;;;;;;;;;;;6.20;99.90;;;;;;5059795;28;19978;-72
2022/09/21 04:02:11;;;;;;;;;;;6.10;99.90;;;;;;5062003;28;20341;-72
2022/09/21 04:04:43;;;;;;;;;;;6.10;99.90;;;;;;5083200;28;19928;-74
2022/09/21 04:07:15;;;;;;;;;;;6.00;99.90;;;;;;5081533;28;19928;-72
2022/09/21 04:09:46;;;;;;;;;;;6.00;99.90;;;;;;5062638;28;19924;-73
2022/09/21 04:12:21;;;;;;;;;;;5.90;99.90;;;;;;5058414;28;19954;-75
2022/09/21 04:14:53;;;;;;;;;;;5.90;99.90;;;;;;5040431;28;20337;-72
2022/09/21 04:17:24;;;;;;;;;;;5.90;99.90;;;;;;5051844;28;20276;-73
2022/09/21 04:19:56;;;;;;;;;;;5.90;99.90;;;;;;5070429;28;20402;-72
2022/09/21 04:22:27;;;;;;;;;;;5.90;99.90;;;;;;5062913;28;20268;-72
2022/09/21 04:25:00;;;;;;;;;;;5.90;99.90;;;;;;5074293;28;20387;-72
2022/09/21 04:27:26;;;;;;;;;;;5.90;99.90;;;;;;5049012;28;19946;-72
2022/09/21 04:29:58;;;;;;;;;;;5.90;99.90;;;;;;5057826;28;19924;-72
2022/09/21 04:32:30;;;;;;;;;;;5.80;99.90;;;;;;5074351;28;19928;-73
2022/09/21 04:35:02;;;;;;;;;;;5.80;99.90;;;;;;5062399;28;19925;-73
2022/09/21 04:37:29;;;;;;;;;;;5.80;99.90;;;;;;5061213;28;19924;-73
2022/09/21 04:40:00;;;;;;;;;;;5.80;99.90;;;;;;5068608;28;19983;-72
2022/09/21 04:42:32;;;;;;;;;;;5.70;99.90;;;;;;5038054;28;19929;-73
2022/09/21 04:45:04;;;;;;;;;;;5.70;99.90;;;;;;5064515;28;19982;-72
2022/09/21 04:47:35;;;;;;;;;;;5.70;99.90;;;;;;5060738;28;19924;-72
2022/09/21 04:50:07;;;;;;;;;;;5.60;99.90;;;;;;5056728;28;19925;-73
2022/09/21 04:52:39;;;;;;;;;;;5.60;99.90;;;;;;5074037;28;19936;-72
2022/09/21 04:55:10;;;;;;;;;;;5.50;99.90;;;;;;5062113;28;19936;-72
2022/09/21 04:57:43;;;;;;;;;;;5.50;99.90;;;;;;5052262;28;19947;-73
2022/09/21 05:00:14;;;;;;;;;;;5.50;99.90;;;;;;5074865;28;20399;-73
2022/09/21 05:02:46;;;;;;;;;;;5.50;99.90;;;;;;5052128;28;19978;-72
2022/09/21 05:05:17;;;;;;;;;;;5.40;99.90;;;;;;5069425;28;19932;-72
2022/09/21 05:07:49;;;;;;;;;;;5.40;99.90;;;;;;5065270;28;19928;-73
2022/09/21 05:10:20;;;;;;;;;;;5.40;99.90;;;;;;5072558;28;19929;-72
2022/09/21 05:12:47;;;;;;;;;;;5.40;99.90;;;;;;5069872;28;19996;-73
2022/09/21 05:15:20;;;;;;;;;;;5.30;99.90;;;;;;5068468;28;19950;-72
2022/09/21 05:17:47;;;;;;;;;;;5.30;99.90;;;;;;5076484;28;19955;-73
2022/09/21 05:20:14;;;;;;;;;;;5.30;99.90;;;;;;5076859;28;19924;-72
2022/09/21 05:22:40;;;;;;;;;;;5.20;99.90;;;;;;5065592;28;19933;-73
2022/09/21 05:25:12;;;;;;;;;;;5.30;99.90;;;;;;5043931;28;19977;-72
2022/09/21 05:27:44;;;;;;;;;;;5.30;99.90;;;;;;5056506;28;19924;-72
2022/09/21 05:30:15;;;;;;;;;;;5.30;99.90;;;;;;5071152;28;20337;-72
2022/09/21 05:32:55;;;;;;;;;;;5.20;99.90;;;;;;5075035;28;19959;-73
2022/09/21 05:35:33;;;;;;;;;;;5.20;99.90;;;;;;5077763;28;19933;-72
2022/09/21 05:38:09;;;;;;;;;;;5.30;99.90;;;;;;5061932;28;20694;-72
2022/09/21 05:40:41;;;;;;;;;;;5.30;99.90;;;;;;5080955;28;19977;-72
2022/09/21 05:43:12;;;;;;;;;;;5.30;99.90;;;;;;5066027;28;20313;-72
2022/09/21 05:45:42;;;;;;;;;;;5.20;99.90;;;;;;5074915;28;19925;-73
2022/09/21 05:48:18;;;;;;;;;;;5.20;99.90;;;;;;5074056;28;19986;-72
2022/09/21 05:50:50;;;;;;;;;;;5.20;99.90;;;;;;5066931;28;20357;-72
2022/09/21 05:53:22;;;;;;;;;;;5.30;99.90;;;;;;5066496;28;19960;-73
2022/09/21 05:55:55;;;;;;;;;;;5.30;99.90;;;;;;5074172;28;19931;-73
2022/09/21 05:58:30;;;;;;;;;;;5.30;99.90;;;;;;5071286;28;19948;-72
2022/09/21 06:01:03;;;;;;;;;;;5.30;99.90;;;;;;5061149;28;19924;-72
2022/09/21 06:03:35;;;;;;;;;;;5.30;99.90;;;;;;5071500;28;19925;-72
2022/09/21 06:06:07;;;;;;;;;;;5.20;99.90;;;;;;5063104;28;19925;-72
2022/09/21 06:08:38;;;;;;;;;;;5.20;99.90;;;;;;5054662;28;19925;-72
2022/09/21 06:11:10;;;;;;;;;;;5.30;99.90;;;;;;5064090;28;19924;-71
2022/09/21 06:13:37;;;;;;;;;;;5.30;99.90;;;;;;5059328;28;19924;-72
2022/09/21 06:16:08;;;;;;;;;;;5.30;99.90;;;;;;5042644;28;19982;-72
2022/09/21 06:18:41;;;;;;;;;;;5.40;99.90;;;;;;5067822;28;19931;-72
2022/09/21 06:21:07;;;;;;;;;;;5.50;99.90;;;;;;5059336;28;19924;-72
2022/09/21 06:23:39;;;;;;;;;;;5.40;99.90;;;;;;5078164;28;19939;-72
2022/09/21 06:26:10;;;;;;;;;;;5.50;99.90;;;;;;5075649;28;19928;-72
2022/09/21 06:28:42;;;;;;;;;;;5.50;99.90;;;;;;5073412;28;19928;-72
2022/09/21 06:31:14;;;;;;;;;;;5.50;99.90;;;;;;5076145;28;19928;-72
2022/09/21 06:33:45;;;;;;;;;;;5.50;99.90;;;;;;5044895;28;19930;-72
2022/09/21 06:36:13;;;;;;;;;;;5.50;99.90;;;;;;5058091;28;19986;-72
2022/09/21 06:38:44;;;;;;;;;;;5.60;99.90;;;;;;5088836;28;19924;-72
2022/09/21 06:41:16;;;;;;;;;;;5.60;99.90;;;;;;5078177;28;20006;-72
2022/09/21 06:43:43;;;;;;;;;;;5.60;99.90;;;;;;5059785;28;19990;-74
2022/09/21 06:46:14;;;;;;;;;;;5.50;99.90;;;;;;5080614;28;19928;-73
2022/09/21 06:48:46;;;;;;;;;;;5.60;99.90;;;;;;5069957;28;19925;-72
2022/09/21 06:51:19;;;;;;;;;;;5.60;99.90;;;;;;5047957;28;19954;-72
2022/09/21 06:53:55;;;;;;;;;;;5.70;99.90;;;;;;5073351;28;20460;-72
2022/09/21 06:56:22;;;;;;;;;;;5.70;99.90;;;;;;5059844;28;19928;-72
2022/09/21 06:58:54;;;;;;;;;;;5.80;99.90;;;;;;5070589;28;19928;-72
2022/09/21 07:01:25;;;;;;;;;;;5.80;99.90;;;;;;5061123;28;19928;-73
2022/09/21 07:03:52;;;;;;;;;;;5.90;99.90;;;;;;5055056;28;19987;-72
2022/09/21 07:06:24;;;;;;;;;;;5.90;99.90;;;;;;5069644;28;19928;-72
2022/09/21 07:08:52;;;;;;;;;;;5.90;99.90;;;;;;5079186;28;20812;-72
2022/09/21 07:11:26;;;;;;;;;;;6.00;99.90;;;;;;5069416;28;19931;-72
2022/09/21 07:13:58;;;;;;;;;;;6.00;99.90;;;;;;5074873;28;19928;-72
2022/09/21 07:16:30;;;;;;;;;;;6.00;99.90;;;;;;5055482;28;19928;-71
2022/09/21 07:19:03;;;;;;;;;;;6.10;99.90;;;;;;5075606;28;19954;-72
2022/09/21 07:21:34;;;;;;;;;;;6.10;99.90;;;;;;5043990;28;19932;-72
2022/09/21 07:24:01;;;;;;;;;;;6.10;99.90;;;;;;5061428;28;19985;-72
2022/09/21 07:26:33;;;;;;;;;;;6.20;99.90;;;;;;5054908;28;20726;-72
2022/09/21 07:29:04;;;;;;;;;;;6.30;99.90;;;;;;5070804;28;19928;-72
2022/09/21 07:31:36;;;;;;;;;;;6.30;99.90;;;;;;5068413;28;19975;-71
2022/09/21 07:34:07;;;;;;;;;;;6.40;99.90;;;;;;5074830;28;20733;-72
2022/09/21 07:36:34;;;;;;;;;;;6.40;99.90;;;;;;5068717;28;20389;-72
2022/09/21 07:39:01;;;;;;;;;;;6.40;99.90;;;;;;5071835;28;20417;-73
2022/09/21 07:41:33;;;;;;;;;;;6.50;99.90;;;;;;5059958;28;19929;-71
2022/09/21 07:44:04;;;;;;;;;;;6.60;99.90;;;;;;5070012;28;19994;-72
2022/09/21 07:46:36;;;;;;;;;;;6.70;99.90;;;;;;5057823;28;19936;-72
2022/09/21 07:49:10;;;;;;;;;;;6.80;99.90;;;;;;5059873;28;19950;-72
2022/09/21 07:51:42;;;;;;;;;;;7.00;99.90;;;;;;5061399;28;19977;-71
2022/09/21 07:54:14;;;;;;;;;;;7.00;99.90;;;;;;5056733;28;19959;-73
2022/09/21 07:59:04;;;;;;;;;;;7.20;99.90;;;;;;5057392;28;19932;-73
2022/09/21 07:59:37;;;;;;;;;;;7.30;99.90;;;;;;5064588;28;19928;-72
2022/09/21 08:02:04;;;;;;;;;;;7.60;99.90;;;;;;5088073;28;20842;-73
2022/09/21 08:04:36;;;;;;;;;;;7.80;99.90;;;;;;5052809;28;19925;-73
2022/09/21 08:07:07;;;;;;;;;;;7.90;99.90;;;;;;5079400;28;19925;-73
2022/09/21 08:09:40;;;;;;;;;;;8.00;99.90;;;;;;5073162;28;19925;-72
2022/09/21 08:12:12;;;;;;;;;;;8.10;99.90;;;;;;5070309;28;19928;-72
2022/09/21 08:14:43;;;;;;;;;;;8.20;99.90;;;;;;5076677;28;19924;-73
2022/09/21 08:17:15;;;;;;;;;;;8.30;99.90;;;;;;5057112;28;19959;-72
2022/09/21 08:19:41;;;;;;;;;;;8.40;99.90;;;;;;5074291;28;19928;-72
2022/09/21 08:22:13;;;;;;;;;;;8.60;99.90;;;;;;5062281;28;19924;-73
2022/09/21 08:24:47;;;;;;;;;;;8.70;99.90;;;;;;5055108;28;19931;-72
2022/09/21 08:27:19;;;;;;;;;;;8.90;99.90;;;;;;5073075;28;20387;-72
2022/09/21 08:29:45;;;;;;;;;;;9.00;99.90;;;;;;5066798;28;19924;-72
2022/09/21 08:32:17;;;;;;;;;;;9.20;99.90;;;;;;5065000;28;19966;-72
2022/09/21 08:34:48;;;;;;;;;;;9.30;99.90;;;;;;5076043;28;19924;-72
2022/09/21 08:37:15;;;;;;;;;;;9.50;99.90;;;;;;5079339;28;20346;-72
2022/09/21 08:39:41;;;;;;;;;;;9.60;99.90;;;;;;5075282;28;19935;-72
2022/09/21 08:42:19;;;;;;;;;;;9.80;99.90;;;;;;5080638;28;19955;-72
2022/09/21 08:44:53;;;;;;;;;;;9.90;99.90;;;;;;5044607;28;19928;-73
2022/09/21 08:47:31;;;;;;;;;;;10.00;99.90;;;;;;5066908;28;19955;-73
2022/09/21 08:50:04;;;;;;;;;;;10.10;99.90;;;;;;5058427;28;19975;-72
2022/09/21 08:52:32;;;;;;;;;;;10.20;99.90;;;;;;5058939;28;19939;-72
2022/09/21 08:55:16;;;;;;;;;;;10.40;99.90;;;;;;5074998;28;19940;-72
2022/09/21 08:57:48;;;;;;;;;;;10.50;99.90;;;;;;5069544;28;19929;-72
2022/09/21 09:00:19;;;;;;;;;;;10.80;99.90;;;;;;5077107;28;19993;-72
2022/09/21 09:03:14;;;;;;;;;;;10.90;99.90;;;;;;5070734;28;19954;-73
2022/09/21 09:05:47;;;;;;;;;;;11.10;99.90;;;;;;5058758;28;19935;-72
2022/09/21 09:08:18;;;;;;;;;;;11.30;99.90;;;;;;5079836;28;19947;-72
2022/09/21 09:11:08;;;;;;;;;;;11.50;99.90;;;;;;5066023;28;19928;-73
2022/09/21 09:13:46;;;;;;;;;;;11.60;99.90;;;;;;5058600;28;19927;-73
2022/09/21 09:16:36;;;;;;;;;;;11.70;99.90;;;;;;5083407;28;20378;-72
2022/09/21 09:19:21;;;;;;;;;;;11.60;99.90;;;;;;5070896;28;19928;-73
2022/09/21 09:21:54;;;;;;;;;;;11.70;99.90;;;;;;5069312;28;19928;-72
2022/09/21 09:24:42;;;;;;;;;;;11.90;99.90;;;;;;5055519;28;19929;-73
2022/09/21 09:27:14;;;;;;;;;;;12.00;99.90;;;;;;5075061;28;19924;-73
2022/09/21 09:29:45;;;;;;;;;;;12.20;99.90;;;;;;5039331;28;19924;-72
2022/09/21 09:32:17;;;;;;;;;;;12.40;99.90;;;;;;5047558;28;19994;-73
2022/09/21 09:35:09;;;;;;;;;;;12.30;99.90;;;;;;5057562;28;19935;-73
2022/09/21 09:37:41;;;;;;;;;;;12.40;99.90;;;;;;5054779;28;20353;-71
2022/09/21 09:40:13;;;;;;;;;;;12.60;99.90;;;;;;5059370;28;20383;-72
2022/09/21 09:42:42;;;;;;;;;;;12.80;99.90;;;;;;5080333;28;19928;-73
2022/09/21 09:45:20;;;;;;;;;;;12.80;99.90;;;;;;5076066;28;19956;-72
2022/09/21 09:48:10;;;;;;;;;;;12.90;99.90;;;;;;5059509;28;19975;-72
2022/09/21 09:50:42;;;;;;;;;;;13.10;99.90;;;;;;5062337;28;19974;-73
2022/09/21 09:53:16;;;;;;;;;;;13.30;99.90;;;;;;5058094;28;19986;-72
2022/09/21 09:55:45;;;;;;;;;;;13.40;99.90;;;;;;5077308;28;19928;-73
2022/09/21 09:58:43;;;;;;;;;;;13.50;99.90;;;;;;5062478;28;19928;-73
2022/09/21 10:01:34;;;;;;;;;;;13.60;99.90;;;;;;5042858;28;19928;-72
2022/09/21 10:04:07;;;;;;;;;;;13.40;99.90;;;;;;5081623;28;19928;-73
2022/09/21 10:06:39;;;;;;;;;;;13.30;99.90;;;;;;5078101;28;20446;-72
2022/09/21 10:09:28;;;;;;;;;;;13.40;99.90;;;;;;5077805;28;19932;-73
2022/09/21 10:11:57;;;;;;;;;;;13.40;99.90;;;;;;5078099;28;20400;-73
2022/09/21 10:14:32;;;;;;;;;;;13.60;99.90;;;;;;5056171;28;20406;-73
2022/09/21 10:17:05;;;;;;;;;;;13.60;99.90;;;;;;5059526;28;20367;-72
2022/09/21 10:19:31;;;;;;;;;;;13.80;99.90;;;;;;5086200;28;19955;-72
2022/09/21 10:22:03;;;;;;;;;;;13.80;99.90;;;;;;5047159;28;20268;-73
2022/09/21 10:24:36;;;;;;;;;;;14.00;99.90;;;;;;5051948;28;20046;-73
2022/09/21 10:27:10;;;;;;;;;;;14.10;99.90;;;;;;5075737;28;20351;-72
2022/09/21 10:29:40;;;;;;;;;;;14.20;99.90;;;;;;5056410;28;19928;-72
2022/09/21 10:32:11;;;;;;;;;;;14.20;99.90;;;;;;5074632;28;19986;-72
2022/09/21 10:34:59;;;;;;;;;;;14.10;99.90;;;;;;5074545;28;19924;-72
2022/09/21 10:37:33;;;;;;;;;;;14.00;99.90;;;;;;5072018;28;19994;-73
2022/09/21 10:40:00;;;;;;;;;;;14.00;99.90;;;;;;5057598;28;19974;-72
2022/09/21 10:42:36;;;;;;;;;;;13.90;99.90;;;;;;5080246;28;19940;-72
2022/09/21 10:45:14;;;;;;;;;;;13.80;99.90;;;;;;5060377;28;19978;-71
2022/09/21 10:47:47;;;;;;;;;;;13.90;99.90;;;;;;5072198;28;19924;-71
2022/09/21 10:50:27;;;;;;;;;;;14.00;99.90;;;;;;5074804;28;19932;-71
2022/09/21 10:53:01;;;;;;;;;;;14.00;99.90;;;;;;5078695;28;19925;-71
2022/09/21 10:55:35;;;;;;;;;;;14.00;99.90;;;;;;5058697;28;20709;-72
2022/09/21 10:58:12;;;;;;;;;;;14.20;99.90;;;;;;5068685;28;20394;-72
2022/09/21 11:00:46;;;;;;;;;;;14.20;99.90;;;;;;5059231;28;19931;-72
2022/09/21 11:03:33;;;;;;;;;;;14.20;99.90;;;;;;5056879;28;19924;-72
2022/09/21 11:06:07;;;;;;;;;;;14.30;99.90;;;;;;5057717;28;19979;-72
2022/09/21 11:08:43;;;;;;;;;;;14.40;99.90;;;;;;5061695;28;19986;-72
2022/09/21 11:11:33;;;;;;;;;;;14.70;99.90;;;;;;5082763;28;19925;-71
2022/09/21 11:14:10;;;;;;;;;;;14.90;99.90;;;;;;5048434;28;19925;-71
2022/09/21 11:16:50;;;;;;;;;;;15.10;99.90;;;;;;5071743;28;19935;-72
2022/09/21 11:19:27;;;;;;;;;;;15.30;99.90;;;;;;5071045;28;20355;-72
2022/09/21 11:22:04;;;;;;;;;;;15.40;99.90;;;;;;5060223;28;19932;-72
2022/09/21 11:24:36;;;;;;;;;;;15.50;99.90;;;;;;5067810;28;19928;-72
2022/09/21 11:27:20;;;;;;;;;;;15.60;99.90;;;;;;5041510;28;19924;-71
2022/09/21 11:29:50;;;;;;;;;;;15.60;99.90;;;;;;5073108;28;19924;-71
2022/09/21 11:32:21;;;;;;;;;;;15.40;99.90;;;;;;5066662;28;19929;-72
2022/09/21 11:35:19;;;;;;;;;;;15.40;99.90;;;;;;5060680;28;19924;-72
2022/09/21 11:38:03;;;;;;;;;;;15.50;99.90;;;;;;5044477;28;19932;-72
2022/09/21 11:40:48;;;;;;;;;;;15.70;99.90;;;;;;5058566;28;19931;-72
2022/09/21 11:43:39;;;;;;;;;;;15.80;99.90;;;;;;5054137;28;19991;-71
2022/09/21 11:46:23;;;;;;;;;;;15.90;99.90;;;;;;5078627;28;19924;-72
2022/09/21 11:49:07;;;;;;;;;;;15.90;99.90;;;;;;5074691;28;20315;-71
2022/09/21 11:52:14;;;;;;;;;;;15.80;99.90;;;;;;5049800;28;19978;-72
2022/09/21 11:55:04;;;;;;;;;;;15.50;99.90;;;;;;5011055;28;19925;-72
2022/09/21 11:57:47;;;;;;;;;;;15.50;99.90;;;;;;5060875;28;19947;-72
2022/09/21 12:00:21;;;;;;;;;;;15.60;99.90;;;;;;5079966;28;19928;-72
2022/09/21 12:03:12;;;;;;;;;;;15.70;99.90;;;;;;5064586;28;20330;-72
2022/09/21 12:06:00;;;;;;;;;;;15.80;99.90;;;;;;5073920;28;19935;-72
2022/09/21 12:08:41;;;;;;;;;;;15.90;99.90;;;;;;5062331;28;19964;-72
2022/09/21 12:11:32;;;;;;;;;;;16.10;99.90;;;;;;5081623;28;20154;-71
2022/09/21 12:14:10;;;;;;;;;;;16.10;99.90;;;;;;5048227;28;19925;-72
2022/09/21 12:16:59;;;;;;;;;;;16.00;99.90;;;;;;5067094;28;20670;-72
2022/09/21 12:19:44;;;;;;;;;;;15.80;99.90;;;;;;5063532;28;19924;-71
2022/09/21 12:22:32;;;;;;;;;;;15.90;99.90;;;;;;5077563;28;19955;-72
2022/09/21 12:25:11;;;;;;;;;;;16.00;99.90;;;;;;5048348;28;19933;-73
2022/09/21 12:27:46;;;;;;;;;;;16.40;99.90;;;;;;5068062;28;19928;-72
2022/09/21 12:30:19;;;;;;;;;;;16.60;99.90;;;;;;5049440;28;19932;-72
2022/09/21 12:32:56;;;;;;;;;;;16.70;99.90;;;;;;5074971;28;19978;-72
2022/09/21 12:35:40;;;;;;;;;;;16.90;99.90;;;;;;5072713;28;19928;-72
2022/09/21 12:38:26;;;;;;;;;;;17.00;99.90;;;;;;5075782;28;19928;-72
2022/09/21 12:41:04;;;;;;;;;;;17.00;99.90;;;;;;5075739;28;19978;-74
2022/09/21 12:43:42;;;;;;;;;;;17.00;99.90;;;;;;5062137;28;19931;-73
2022/09/21 12:46:23;;;;;;;;;;;16.80;99.90;;;;;;5068224;28;19928;-72
2022/09/21 12:48:57;;;;;;;;;;;16.60;99.90;;;;;;5081682;28;20292;-72
2022/09/21 12:51:37;;;;;;;;;;;16.20;99.90;;;;;;5081516;28;19928;-71
2022/09/21 12:54:27;;;;;;;;;;;15.90;99.90;;;;;;5040862;28;19990;-72
2022/09/21 12:57:08;;;;;;;;;;;15.80;99.90;;;;;;5077196;28;19924;-72
2022/09/21 12:59:48;;;;;;;;;;;15.60;99.90;;;;;;5062192;28;19925;-72
2022/09/21 13:02:26;;;;;;;;;;;15.60;99.90;;;;;;5062022;28;19955;-73
2022/09/21 13:05:17;;;;;;;;;;;15.40;99.90;;;;;;5069920;28;19929;-71
2022/09/21 13:08:09;;;;;;;;;;;15.30;99.90;;;;;;5060813;28;19924;-73
2022/09/21 13:10:41;;;;;;;;;;;15.30;99.90;;;;;;5080727;28;19932;-72
2022/09/21 13:13:19;;;;;;;;;;;15.30;99.90;;;;;;5071691;28;19958;-72
2022/09/21 13:15:52;;;;;;;;;;;15.50;99.90;;;;;;5070293;28;19924;-72
2022/09/21 13:18:28;;;;;;;;;;;15.70;99.90;;;;;;5072197;28;19928;-72
2022/09/21 13:20:55;;;;;;;;;;;15.90;99.90;;;;;;5058340;28;19928;-72
2022/09/21 13:23:34;;;;;;;;;;;16.00;99.90;;;;;;5073015;28;19971;-71
2022/09/21 13:26:07;;;;;;;;;;;16.20;99.90;;;;;;5076718;28;19983;-72
2022/09/21 13:29:02;;;;;;;;;;;16.20;99.90;;;;;;5029869;28;19929;-72
2022/09/21 13:31:56;;;;;;;;;;;16.30;99.90;;;;;;5054268;28;19982;-72
2022/09/21 13:34:31;;;;;;;;;;;16.50;99.90;;;;;;5052736;28;19928;-72
2022/09/21 13:37:17;;;;;;;;;;;16.70;99.90;;;;;;5059045;28;19932;-72
2022/09/21 13:39:49;;;;;;;;;;;16.70;99.90;;;;;;5068780;28;19982;-72
2022/09/21 13:42:27;;;;;;;;;;;16.70;99.90;;;;;;5070900;28;19931;-72
2022/09/21 13:44:58;;;;;;;;;;;16.80;99.90;;;;;;5063049;28;19924;-72
2022/09/21 13:47:32;;;;;;;;;;;17.00;99.90;;;;;;5073204;28;20505;-72
2022/09/21 13:50:02;;;;;;;;;;;17.00;99.90;;;;;;5044522;28;19924;-72
2022/09/21 13:52:39;;;;;;;;;;;17.10;99.90;;;;;;5053036;28;19982;-73
2022/09/21 13:55:31;;;;;;;;;;;17.10;99.90;;;;;;5053779;28;19931;-71
2022/09/21 13:58:05;;;;;;;;;;;16.80;99.90;;;;;;5070043;28;20007;-72
2022/09/21 14:00:39;;;;;;;;;;;16.60;99.90;;;;;;5064235;28;19928;-72
2022/09/21 14:03:27;;;;;;;;;;;16.60;99.90;;;;;;5075062;28;19931;-72
2022/09/21 14:06:02;;;;;;;;;;;16.50;99.90;;;;;;5055585;28;19925;-72
2022/09/21 14:08:30;;;;;;;;;;;16.20;99.90;;;;;;5066451;28;19925;-72
2022/09/21 14:11:06;;;;;;;;;;;16.10;99.90;;;;;;5064128;28;20018;-72
2022/09/21 14:13:33;;;;;;;;;;;15.90;99.90;;;;;;5068610;28;20362;-72
2022/09/21 14:16:23;;;;;;;;;;;15.60;99.90;;;;;;5065192;28;19953;-73
2022/09/21 14:18:55;;;;;;;;;;;15.50;99.90;;;;;;5095528;28;19925;-72
2022/09/21 14:21:27;;;;;;;;;;;15.70;99.90;;;;;;5069924;28;20374;-72
2022/09/21 14:24:04;;;;;;;;;;;16.00;99.90;;;;;;5073353;28;20482;-72
2022/09/21 14:26:39;;;;;;;;;;;16.40;99.90;;;;;;5076945;28;19924;-72
2022/09/21 14:29:26;;;;;;;;;;;16.70;99.90;;;;;;5061941;28;19932;-71
2022/09/21 14:31:59;;;;;;;;;;;17.00;99.90;;;;;;5072274;28;19924;-72
2022/09/21 14:34:30;;;;;;;;;;;17.30;99.90;;;;;;5055701;28;20399;-72
2022/09/21 14:37:03;;;;;;;;;;;17.60;99.90;;;;;;5070640;28;19932;-72
2022/09/21 14:39:41;;;;;;;;;;;17.60;99.90;;;;;;5069582;28;19925;-72
2022/09/21 14:42:18;;;;;;;;;;;17.70;99.90;;;;;;5047550;28;19932;-73
2022/09/21 14:44:48;;;;;;;;;;;17.50;99.90;;;;;;5064096;28;20401;-73
2022/09/21 14:47:24;;;;;;;;;;;17.20;99.90;;;;;;5037336;28;19971;-72
2022/09/21 14:50:07;;;;;;;;;;;16.80;99.90;;;;;;5062698;28;19932;-72
2022/09/21 14:52:44;;;;;;;;;;;16.50;99.90;;;;;;5032885;28;19979;-72
2022/09/21 14:55:24;;;;;;;;;;;16.50;99.90;;;;;;5045579;28;19925;-72
2022/09/21 14:58:08;;;;;;;;;;;16.90;99.90;;;;;;5056573;28;20410;-72
2022/09/21 15:00:47;;;;;;;;;;;17.40;99.90;;;;;;5071430;28;20268;-72
2022/09/21 15:03:19;;;;;;;;;;;17.90;98.80;;;;;;5069570;28;19924;-72
2022/09/21 15:05:50;;;;;;;;;;;18.30;98.20;;;;;;5053333;28;19970;-72
2022/09/21 15:11:40;;;;;;;;;;;18.80;96.20;;;;;;5031636;28;19929;-72
2022/09/21 15:14:15;;;;;;;;;;;19.00;95.90;;;;;;5069247;28;19932;-72